sensor_id;sensor_type;location;lat;lon;timestamp;P1;durP1;ratioP1;P2;durP2;ratioP2
61764;SDS011;50188;48.114;-1.388;2022-11-20T00:02:25;13.27;;;9.98;;
61764;SDS011;50188;48.114;-1.388;2022-11-20T00:04:50;13.82;;;6.75;;
61764;SDS011;50188;48.114;-1.388;2022-11-20T00:07:16;17.75;;;9.90;;
61764;SDS011;50188;48.114;-1.388;2022-11-20T00:09:42;17.58;;;8.05;;
61764;SDS011;50188;48.114;-1.388;2022-11-20T00:12:07;10.85;;;9.75;;
61764;SDS011;50188;48.114;-1.388;2022-11-20T00:14:33;12.70;;;7.07;;
61764;SDS011;50188;48.114;-1.388;2022-11-20T00:16:58;11.45;;;6.43;;
61764;SDS011;50188;48.114;-1.388;2022-11-20T00:19:24;11.38;;;6.15;;
61764;SDS011;50188;48.114;-1.388;2022-11-20T00:21:50;10.10;;;6.32;;
61764;SDS011;50188;48.114;-1.388;2022-11-20T00:24:18;12.60;;;6.65;;
61764;SDS011;50188;48.114;-1.388;2022-11-20T00:26:44;8.52;;;5.80;;
61764;SDS011;50188;48.114;-1.388;2022-11-20T00:29:09;10.98;;;5.22;;
61764;SDS011;50188;48.114;-1.388;2022-11-20T00:31:35;9.38;;;8.23;;
61764;SDS011;50188;48.114;-1.388;2022-11-20T00:34:01;10.85;;;5.88;;
61764;SDS011;50188;48.114;-1.388;2022-11-20T00:36:28;12.55;;;8.65;;
61764;SDS011;50188;48.114;-1.388;2022-11-20T00:38:57;10.73;;;5.22;;
61764;SDS011;50188;48.114;-1.388;2022-11-20T00:41:23;13.30;;;7.82;;
61764;SDS011;50188;48.114;-1.388;2022-11-20T00:43:51;4.68;;;3.92;;
61764;SDS011;50188;48.114;-1.388;2022-11-20T00:46:19;6.28;;;3.83;;
61764;SDS011;50188;48.114;-1.388;2022-11-20T00:48:46;8.80;;;4.90;;
61764;SDS011;50188;48.114;-1.388;2022-11-20T00:51:13;7.18;;;4.53;;
61764;SDS011;50188;48.114;-1.388;2022-11-20T00:53:40;6.07;;;4.05;;
61764;SDS011;50188;48.114;-1.388;2022-11-20T00:56:07;8.38;;;6.55;;
61764;SDS011;50188;48.114;-1.388;2022-11-20T00:58:36;10.57;;;5.15;;
61764;SDS011;50188;48.114;-1.388;2022-11-20T01:01:04;10.38;;;6.45;;
61764;SDS011;50188;48.114;-1.388;2022-11-20T01:03:32;7.88;;;5.40;;
61764;SDS011;50188;48.114;-1.388;2022-11-20T01:06:02;8.13;;;5.32;;
61764;SDS011;50188;48.114;-1.388;2022-11-20T01:08:31;8.55;;;4.03;;
61764;SDS011;50188;48.114;-1.388;2022-11-20T01:11:01;11.73;;;5.20;;
61764;SDS011;50188;48.114;-1.388;2022-11-20T01:13:29;10.35;;;5.78;;
61764;SDS011;50188;48.114;-1.388;2022-11-20T01:16:14;3.97;;;3.65;;
61764;SDS011;50188;48.114;-1.388;2022-11-20T01:18:42;16.27;;;7.35;;
61764;SDS011;50188;48.114;-1.388;2022-11-20T01:21:17;9.18;;;4.85;;
61764;SDS011;50188;48.114;-1.388;2022-11-20T01:23:47;16.55;;;5.47;;
61764;SDS011;50188;48.114;-1.388;2022-11-20T01:26:15;6.88;;;4.28;;
61764;SDS011;50188;48.114;-1.388;2022-11-20T01:28:43;11.02;;;4.47;;
61764;SDS011;50188;48.114;-1.388;2022-11-20T01:31:19;5.15;;;3.65;;
61764;SDS011;50188;48.114;-1.388;2022-11-20T01:33:47;14.65;;;7.35;;
61764;SDS011;50188;48.114;-1.388;2022-11-20T01:36:15;8.95;;;4.75;;
61764;SDS011;50188;48.114;-1.388;2022-11-20T01:38:42;7.85;;;4.50;;
61764;SDS011;50188;48.114;-1.388;2022-11-20T01:41:08;15.27;;;8.10;;
61764;SDS011;50188;48.114;-1.388;2022-11-20T01:43:35;6.43;;;4.32;;
61764;SDS011;50188;48.114;-1.388;2022-11-20T01:46:15;14.00;;;5.97;;
61764;SDS011;50188;48.114;-1.388;2022-11-20T01:48:43;5.70;;;5.00;;
61764;SDS011;50188;48.114;-1.388;2022-11-20T01:51:29;8.05;;;4.45;;
61764;SDS011;50188;48.114;-1.388;2022-11-20T01:54:10;14.48;;;7.10;;
61764;SDS011;50188;48.114;-1.388;2022-11-20T01:56:42;5.43;;;3.80;;
61764;SDS011;50188;48.114;-1.388;2022-11-20T01:59:12;10.17;;;4.30;;
61764;SDS011;50188;48.114;-1.388;2022-11-20T02:01:40;8.43;;;7.57;;
61764;SDS011;50188;48.114;-1.388;2022-11-20T02:04:06;11.75;;;8.85;;
61764;SDS011;50188;48.114;-1.388;2022-11-20T02:06:35;11.45;;;6.20;;
61764;SDS011;50188;48.114;-1.388;2022-11-20T02:09:05;8.90;;;5.75;;
61764;SDS011;50188;48.114;-1.388;2022-11-20T02:11:31;17.83;;;5.68;;
61764;SDS011;50188;48.114;-1.388;2022-11-20T02:13:57;11.32;;;8.35;;
61764;SDS011;50188;48.114;-1.388;2022-11-20T02:16:25;5.63;;;4.13;;
61764;SDS011;50188;48.114;-1.388;2022-11-20T02:18:54;8.30;;;5.40;;
61764;SDS011;50188;48.114;-1.388;2022-11-20T02:21:24;7.43;;;6.05;;
61764;SDS011;50188;48.114;-1.388;2022-11-20T02:23:59;9.43;;;6.05;;
61764;SDS011;50188;48.114;-1.388;2022-11-20T02:26:30;14.93;;;10.93;;
61764;SDS011;50188;48.114;-1.388;2022-11-20T02:28:58;14.18;;;10.57;;
61764;SDS011;50188;48.114;-1.388;2022-11-20T02:31:25;14.98;;;11.60;;
61764;SDS011;50188;48.114;-1.388;2022-11-20T02:33:55;11.57;;;6.38;;
61764;SDS011;50188;48.114;-1.388;2022-11-20T02:36:21;13.30;;;6.28;;
61764;SDS011;50188;48.114;-1.388;2022-11-20T02:38:48;10.18;;;5.35;;
61764;SDS011;50188;48.114;-1.388;2022-11-20T02:41:15;11.55;;;6.72;;
61764;SDS011;50188;48.114;-1.388;2022-11-20T02:43:40;16.48;;;11.50;;
61764;SDS011;50188;48.114;-1.388;2022-11-20T02:46:09;21.20;;;11.93;;
61764;SDS011;50188;48.114;-1.388;2022-11-20T02:48:34;8.13;;;5.83;;
61764;SDS011;50188;48.114;-1.388;2022-11-20T02:51:00;6.60;;;5.90;;
61764;SDS011;50188;48.114;-1.388;2022-11-20T02:53:26;9.50;;;8.55;;
61764;SDS011;50188;48.114;-1.388;2022-11-20T02:55:51;7.18;;;5.15;;
61764;SDS011;50188;48.114;-1.388;2022-11-20T02:58:17;8.10;;;7.35;;
61764;SDS011;50188;48.114;-1.388;2022-11-20T03:00:43;6.55;;;5.65;;
61764;SDS011;50188;48.114;-1.388;2022-11-20T03:03:08;9.55;;;6.35;;
61764;SDS011;50188;48.114;-1.388;2022-11-20T03:05:34;9.23;;;8.32;;
61764;SDS011;50188;48.114;-1.388;2022-11-20T03:07:59;11.63;;;8.88;;
61764;SDS011;50188;48.114;-1.388;2022-11-20T03:10:25;10.45;;;5.95;;
61764;SDS011;50188;48.114;-1.388;2022-11-20T03:12:54;6.63;;;5.88;;
61764;SDS011;50188;48.114;-1.388;2022-11-20T03:17:47;12.50;;;9.73;;
61764;SDS011;50188;48.114;-1.388;2022-11-20T03:20:13;7.88;;;5.88;;
61764;SDS011;50188;48.114;-1.388;2022-11-20T03:22:39;6.90;;;5.85;;
61764;SDS011;50188;48.114;-1.388;2022-11-20T03:25:04;16.67;;;9.60;;
61764;SDS011;50188;48.114;-1.388;2022-11-20T03:27:33;7.00;;;5.90;;
61764;SDS011;50188;48.114;-1.388;2022-11-20T03:29:59;10.70;;;7.60;;
61764;SDS011;50188;48.114;-1.388;2022-11-20T03:32:25;12.52;;;9.40;;
61764;SDS011;50188;48.114;-1.388;2022-11-20T03:34:50;6.78;;;6.13;;
61764;SDS011;50188;48.114;-1.388;2022-11-20T03:37:16;6.53;;;4.82;;
61764;SDS011;50188;48.114;-1.388;2022-11-20T03:39:42;8.70;;;5.90;;
61764;SDS011;50188;48.114;-1.388;2022-11-20T03:42:08;10.20;;;8.50;;
61764;SDS011;50188;48.114;-1.388;2022-11-20T03:44:54;16.30;;;6.57;;
61764;SDS011;50188;48.114;-1.388;2022-11-20T03:47:19;17.90;;;8.38;;
61764;SDS011;50188;48.114;-1.388;2022-11-20T03:49:45;5.38;;;4.88;;
61764;SDS011;50188;48.114;-1.388;2022-11-20T03:52:11;14.23;;;8.32;;
61764;SDS011;50188;48.114;-1.388;2022-11-20T03:54:36;7.57;;;4.95;;
61764;SDS011;50188;48.114;-1.388;2022-11-20T03:57:02;6.95;;;5.13;;
61764;SDS011;50188;48.114;-1.388;2022-11-20T03:59:28;11.52;;;7.95;;
61764;SDS011;50188;48.114;-1.388;2022-11-20T04:01:53;5.68;;;5.13;;
61764;SDS011;50188;48.114;-1.388;2022-11-20T04:04:19;12.27;;;7.68;;
61764;SDS011;50188;48.114;-1.388;2022-11-20T04:06:44;8.20;;;6.47;;
61764;SDS011;50188;48.114;-1.388;2022-11-20T04:09:10;13.13;;;7.40;;
61764;SDS011;50188;48.114;-1.388;2022-11-20T04:11:36;5.68;;;4.78;;
61764;SDS011;50188;48.114;-1.388;2022-11-20T04:14:04;6.70;;;4.85;;
61764;SDS011;50188;48.114;-1.388;2022-11-20T04:16:32;9.98;;;6.85;;
61764;SDS011;50188;48.114;-1.388;2022-11-20T04:19:00;6.75;;;4.57;;
61764;SDS011;50188;48.114;-1.388;2022-11-20T04:21:27;4.70;;;4.22;;
61764;SDS011;50188;48.114;-1.388;2022-11-20T04:23:54;5.93;;;3.65;;
61764;SDS011;50188;48.114;-1.388;2022-11-20T04:26:21;5.82;;;4.28;;
61764;SDS011;50188;48.114;-1.388;2022-11-20T04:28:47;15.10;;;7.05;;
61764;SDS011;50188;48.114;-1.388;2022-11-20T04:31:14;8.65;;;4.68;;
61764;SDS011;50188;48.114;-1.388;2022-11-20T04:33:41;5.83;;;3.90;;
61764;SDS011;50188;48.114;-1.388;2022-11-20T04:36:11;12.05;;;7.07;;
61764;SDS011;50188;48.114;-1.388;2022-11-20T04:38:39;8.85;;;5.78;;
61764;SDS011;50188;48.114;-1.388;2022-11-20T04:41:05;8.15;;;5.85;;
61764;SDS011;50188;48.114;-1.388;2022-11-20T04:43:32;10.60;;;6.05;;
61764;SDS011;50188;48.114;-1.388;2022-11-20T04:45:58;6.72;;;6.03;;
61764;SDS011;50188;48.114;-1.388;2022-11-20T04:48:25;10.85;;;6.78;;
61764;SDS011;50188;48.114;-1.388;2022-11-20T04:50:52;5.40;;;4.15;;
61764;SDS011;50188;48.114;-1.388;2022-11-20T04:53:18;8.32;;;3.92;;
61764;SDS011;50188;48.114;-1.388;2022-11-20T04:55:45;10.05;;;6.10;;
61764;SDS011;50188;48.114;-1.388;2022-11-20T04:58:10;8.73;;;5.97;;
61764;SDS011;50188;48.114;-1.388;2022-11-20T05:00:36;11.10;;;4.57;;
61764;SDS011;50188;48.114;-1.388;2022-11-20T05:03:02;9.55;;;6.38;;
61764;SDS011;50188;48.114;-1.388;2022-11-20T05:05:28;6.68;;;4.57;;
61764;SDS011;50188;48.114;-1.388;2022-11-20T05:07:55;5.90;;;5.38;;
61764;SDS011;50188;48.114;-1.388;2022-11-20T05:10:22;4.18;;;2.85;;
61764;SDS011;50188;48.114;-1.388;2022-11-20T05:12:48;5.85;;;5.07;;
61764;SDS011;50188;48.114;-1.388;2022-11-20T05:15:14;4.18;;;2.72;;
61764;SDS011;50188;48.114;-1.388;2022-11-20T05:17:40;5.82;;;3.35;;
61764;SDS011;50188;48.114;-1.388;2022-11-20T05:20:06;6.00;;;5.43;;
61764;SDS011;50188;48.114;-1.388;2022-11-20T05:22:32;10.00;;;5.22;;
61764;SDS011;50188;48.114;-1.388;2022-11-20T05:24:57;7.32;;;4.63;;
61764;SDS011;50188;48.114;-1.388;2022-11-20T05:27:23;7.95;;;4.85;;
61764;SDS011;50188;48.114;-1.388;2022-11-20T05:29:48;5.95;;;4.10;;
61764;SDS011;50188;48.114;-1.388;2022-11-20T05:32:14;8.43;;;5.32;;
61764;SDS011;50188;48.114;-1.388;2022-11-20T05:34:39;4.50;;;2.95;;
61764;SDS011;50188;48.114;-1.388;2022-11-20T05:37:05;8.60;;;4.82;;
61764;SDS011;50188;48.114;-1.388;2022-11-20T05:39:31;4.13;;;2.15;;
61764;SDS011;50188;48.114;-1.388;2022-11-20T05:41:56;6.60;;;2.63;;
61764;SDS011;50188;48.114;-1.388;2022-11-20T05:44:42;7.25;;;4.60;;
61764;SDS011;50188;48.114;-1.388;2022-11-20T05:47:07;3.95;;;2.60;;
61764;SDS011;50188;48.114;-1.388;2022-11-20T05:49:33;9.80;;;4.55;;
61764;SDS011;50188;48.114;-1.388;2022-11-20T05:51:58;5.32;;;4.47;;
61764;SDS011;50188;48.114;-1.388;2022-11-20T05:54:24;6.85;;;2.80;;
61764;SDS011;50188;48.114;-1.388;2022-11-20T05:56:49;5.82;;;2.97;;
61764;SDS011;50188;48.114;-1.388;2022-11-20T05:59:15;8.40;;;5.20;;
61764;SDS011;50188;48.114;-1.388;2022-11-20T06:01:41;3.50;;;3.10;;
61764;SDS011;50188;48.114;-1.388;2022-11-20T06:04:06;5.88;;;2.85;;
61764;SDS011;50188;48.114;-1.388;2022-11-20T06:06:32;5.70;;;4.55;;
61764;SDS011;50188;48.114;-1.388;2022-11-20T06:08:58;4.22;;;2.40;;
61764;SDS011;50188;48.114;-1.388;2022-11-20T06:11:24;5.72;;;3.75;;
61764;SDS011;50188;48.114;-1.388;2022-11-20T06:13:50;3.55;;;2.20;;
61764;SDS011;50188;48.114;-1.388;2022-11-20T06:16:17;5.55;;;2.70;;
61764;SDS011;50188;48.114;-1.388;2022-11-20T06:18:44;7.43;;;4.00;;
61764;SDS011;50188;48.114;-1.388;2022-11-20T06:21:11;7.50;;;3.97;;
61764;SDS011;50188;48.114;-1.388;2022-11-20T06:23:38;5.22;;;2.30;;
61764;SDS011;50188;48.114;-1.388;2022-11-20T06:26:05;5.18;;;4.78;;
61764;SDS011;50188;48.114;-1.388;2022-11-20T06:28:35;2.35;;;2.15;;
61764;SDS011;50188;48.114;-1.388;2022-11-20T06:31:01;6.90;;;3.58;;
61764;SDS011;50188;48.114;-1.388;2022-11-20T06:33:27;3.10;;;2.83;;
61764;SDS011;50188;48.114;-1.388;2022-11-20T06:35:55;5.38;;;3.58;;
61764;SDS011;50188;48.114;-1.388;2022-11-20T06:38:23;1.42;;;1.13;;
61764;SDS011;50188;48.114;-1.388;2022-11-20T06:40:49;3.33;;;1.55;;
61764;SDS011;50188;48.114;-1.388;2022-11-20T06:43:16;2.45;;;1.95;;
61764;SDS011;50188;48.114;-1.388;2022-11-20T06:45:42;0.80;;;0.80;;
61764;SDS011;50188;48.114;-1.388;2022-11-20T06:48:08;3.42;;;1.27;;
61764;SDS011;50188;48.114;-1.388;2022-11-20T06:50:34;1.42;;;0.88;;
61764;SDS011;50188;48.114;-1.388;2022-11-20T06:53:02;1.13;;;1.02;;
61764;SDS011;50188;48.114;-1.388;2022-11-20T06:55:28;0.70;;;0.70;;
61764;SDS011;50188;48.114;-1.388;2022-11-20T06:57:54;1.13;;;0.88;;
61764;SDS011;50188;48.114;-1.388;2022-11-20T07:00:20;1.70;;;1.58;;
61764;SDS011;50188;48.114;-1.388;2022-11-20T07:02:46;3.17;;;2.83;;
61764;SDS011;50188;48.114;-1.388;2022-11-20T07:05:11;6.78;;;6.35;;
61764;SDS011;50188;48.114;-1.388;2022-11-20T07:07:37;1.10;;;1.00;;
61764;SDS011;50188;48.114;-1.388;2022-11-20T07:10:02;2.05;;;1.33;;
61764;SDS011;50188;48.114;-1.388;2022-11-20T07:12:29;1.30;;;1.20;;
61764;SDS011;50188;48.114;-1.388;2022-11-20T07:14:54;0.93;;;0.90;;
61764;SDS011;50188;48.114;-1.388;2022-11-20T07:17:20;2.10;;;1.90;;
61764;SDS011;50188;48.114;-1.388;2022-11-20T07:19:45;2.13;;;1.48;;
61764;SDS011;50188;48.114;-1.388;2022-11-20T07:24:47;4.55;;;4.05;;
61764;SDS011;50188;48.114;-1.388;2022-11-20T07:27:13;6.15;;;5.75;;
61764;SDS011;50188;48.114;-1.388;2022-11-20T07:29:39;5.22;;;4.40;;
61764;SDS011;50188;48.114;-1.388;2022-11-20T07:32:04;6.45;;;5.95;;
61764;SDS011;50188;48.114;-1.388;2022-11-20T07:34:30;3.35;;;2.90;;
61764;SDS011;50188;48.114;-1.388;2022-11-20T07:36:55;7.32;;;6.72;;
61764;SDS011;50188;48.114;-1.388;2022-11-20T07:39:21;6.30;;;5.90;;
61764;SDS011;50188;48.114;-1.388;2022-11-20T07:41:46;6.03;;;5.47;;
61764;SDS011;50188;48.114;-1.388;2022-11-20T07:44:12;5.20;;;4.70;;
61764;SDS011;50188;48.114;-1.388;2022-11-20T07:46:37;7.70;;;4.15;;
61764;SDS011;50188;48.114;-1.388;2022-11-20T07:49:03;8.40;;;7.70;;
61764;SDS011;50188;48.114;-1.388;2022-11-20T07:51:29;7.45;;;6.82;;
61764;SDS011;50188;48.114;-1.388;2022-11-20T07:53:54;8.05;;;5.95;;
61764;SDS011;50188;48.114;-1.388;2022-11-20T07:56:20;13.13;;;11.73;;
61764;SDS011;50188;48.114;-1.388;2022-11-20T07:58:45;8.38;;;7.53;;
61764;SDS011;50188;48.114;-1.388;2022-11-20T08:01:11;12.50;;;11.30;;
61764;SDS011;50188;48.114;-1.388;2022-11-20T08:03:36;11.38;;;9.95;;
61764;SDS011;50188;48.114;-1.388;2022-11-20T08:06:02;5.68;;;3.65;;
61764;SDS011;50188;48.114;-1.388;2022-11-20T08:08:28;5.88;;;4.88;;
61764;SDS011;50188;48.114;-1.388;2022-11-20T08:10:56;3.30;;;3.00;;
61764;SDS011;50188;48.114;-1.388;2022-11-20T08:13:42;6.95;;;6.10;;
61764;SDS011;50188;48.114;-1.388;2022-11-20T08:16:28;6.03;;;4.93;;
61764;SDS011;50188;48.114;-1.388;2022-11-20T08:18:53;5.55;;;5.15;;
61764;SDS011;50188;48.114;-1.388;2022-11-20T08:21:19;9.30;;;6.28;;
61764;SDS011;50188;48.114;-1.388;2022-11-20T08:23:45;25.20;;;21.48;;
61764;SDS011;50188;48.114;-1.388;2022-11-20T08:26:10;9.23;;;6.95;;
61764;SDS011;50188;48.114;-1.388;2022-11-20T08:28:36;9.05;;;8.18;;
61764;SDS011;50188;48.114;-1.388;2022-11-20T08:31:02;8.02;;;5.40;;
61764;SDS011;50188;48.114;-1.388;2022-11-20T08:33:28;6.18;;;5.57;;
61764;SDS011;50188;48.114;-1.388;2022-11-20T08:35:59;3.15;;;2.72;;
61764;SDS011;50188;48.114;-1.388;2022-11-20T08:38:25;6.85;;;6.30;;
61764;SDS011;50188;48.114;-1.388;2022-11-20T08:40:51;10.35;;;9.35;;
61764;SDS011;50188;48.114;-1.388;2022-11-20T08:43:37;4.85;;;3.83;;
61764;SDS011;50188;48.114;-1.388;2022-11-20T08:46:02;6.88;;;5.80;;
61764;SDS011;50188;48.114;-1.388;2022-11-20T08:48:28;4.53;;;4.00;;
61764;SDS011;50188;48.114;-1.388;2022-11-20T08:50:53;8.15;;;4.90;;
61764;SDS011;50188;48.114;-1.388;2022-11-20T08:53:23;8.38;;;6.28;;
61764;SDS011;50188;48.114;-1.388;2022-11-20T08:55:49;6.30;;;4.25;;
61764;SDS011;50188;48.114;-1.388;2022-11-20T08:58:14;7.07;;;5.72;;
61764;SDS011;50188;48.114;-1.388;2022-11-20T09:00:40;7.93;;;5.25;;
61764;SDS011;50188;48.114;-1.388;2022-11-20T09:03:05;7.00;;;4.47;;
61764;SDS011;50188;48.114;-1.388;2022-11-20T09:05:31;7.00;;;6.40;;
61764;SDS011;50188;48.114;-1.388;2022-11-20T09:07:57;7.07;;;6.40;;
61764;SDS011;50188;48.114;-1.388;2022-11-20T09:10:23;9.40;;;7.03;;
61764;SDS011;50188;48.114;-1.388;2022-11-20T09:12:49;7.32;;;6.50;;
61764;SDS011;50188;48.114;-1.388;2022-11-20T09:15:15;6.63;;;5.97;;
61764;SDS011;50188;48.114;-1.388;2022-11-20T09:17:41;6.90;;;4.78;;
61764;SDS011;50188;48.114;-1.388;2022-11-20T09:20:06;5.60;;;3.35;;
61764;SDS011;50188;48.114;-1.388;2022-11-20T09:22:33;6.35;;;4.43;;
61764;SDS011;50188;48.114;-1.388;2022-11-20T09:24:58;3.75;;;2.30;;
61764;SDS011;50188;48.114;-1.388;2022-11-20T09:27:24;3.70;;;3.17;;
61764;SDS011;50188;48.114;-1.388;2022-11-20T09:29:49;5.28;;;4.45;;
61764;SDS011;50188;48.114;-1.388;2022-11-20T09:32:15;6.32;;;2.85;;
61764;SDS011;50188;48.114;-1.388;2022-11-20T09:34:41;11.32;;;4.88;;
61764;SDS011;50188;48.114;-1.388;2022-11-20T09:37:06;10.80;;;5.13;;
61764;SDS011;50188;48.114;-1.388;2022-11-20T09:39:32;12.55;;;6.50;;
61764;SDS011;50188;48.114;-1.388;2022-11-20T09:42:09;12.05;;;5.85;;
61764;SDS011;50188;48.114;-1.388;2022-11-20T09:44:49;10.85;;;5.88;;
61764;SDS011;50188;48.114;-1.388;2022-11-20T09:47:50;11.68;;;6.22;;
61764;SDS011;50188;48.114;-1.388;2022-11-20T09:50:36;13.80;;;5.18;;
61764;SDS011;50188;48.114;-1.388;2022-11-20T09:53:24;17.10;;;6.80;;
61764;SDS011;50188;48.114;-1.388;2022-11-20T09:56:00;11.48;;;5.68;;
61764;SDS011;50188;48.114;-1.388;2022-11-20T09:58:41;14.77;;;6.10;;
61764;SDS011;50188;48.114;-1.388;2022-11-20T10:01:17;21.55;;;7.80;;
61764;SDS011;50188;48.114;-1.388;2022-11-20T10:03:51;18.77;;;5.95;;
61764;SDS011;50188;48.114;-1.388;2022-11-20T10:06:26;23.33;;;8.40;;
61764;SDS011;50188;48.114;-1.388;2022-11-20T10:09:06;23.60;;;7.72;;
61764;SDS011;50188;48.114;-1.388;2022-11-20T10:15:00;22.42;;;7.78;;
61764;SDS011;50188;48.114;-1.388;2022-11-20T10:17:54;24.70;;;8.90;;
61764;SDS011;50188;48.114;-1.388;2022-11-20T10:20:44;21.38;;;9.00;;
61764;SDS011;50188;48.114;-1.388;2022-11-20T10:23:55;26.45;;;7.72;;
61764;SDS011;50188;48.114;-1.388;2022-11-20T10:29:26;38.63;;;9.90;;
61764;SDS011;50188;48.114;-1.388;2022-11-20T10:32:00;27.65;;;8.55;;
61764;SDS011;50188;48.114;-1.388;2022-11-20T10:34:29;29.95;;;10.02;;
61764;SDS011;50188;48.114;-1.388;2022-11-20T10:37:09;31.13;;;9.20;;
61764;SDS011;50188;48.114;-1.388;2022-11-20T10:39:50;32.17;;;9.73;;
61764;SDS011;50188;48.114;-1.388;2022-11-20T10:42:32;41.45;;;9.75;;
61764;SDS011;50188;48.114;-1.388;2022-11-20T10:48:19;24.88;;;9.52;;
61764;SDS011;50188;48.114;-1.388;2022-11-20T10:53:44;35.00;;;10.65;;
61764;SDS011;50188;48.114;-1.388;2022-11-20T10:56:21;30.48;;;9.32;;
61764;SDS011;50188;48.114;-1.388;2022-11-20T10:59:18;27.95;;;10.45;;
61764;SDS011;50188;48.114;-1.388;2022-11-20T11:02:15;37.40;;;10.65;;
61764;SDS011;50188;48.114;-1.388;2022-11-20T11:04:50;24.27;;;8.15;;
61764;SDS011;50188;48.114;-1.388;2022-11-20T11:07:24;32.80;;;9.43;;
61764;SDS011;50188;48.114;-1.388;2022-11-20T11:09:54;27.20;;;7.78;;
61764;SDS011;50188;48.114;-1.388;2022-11-20T11:12:22;31.88;;;10.05;;
61764;SDS011;50188;48.114;-1.388;2022-11-20T11:14:51;31.45;;;9.40;;
61764;SDS011;50188;48.114;-1.388;2022-11-20T11:17:32;34.17;;;10.18;;
61764;SDS011;50188;48.114;-1.388;2022-11-20T11:20:04;27.23;;;8.13;;
61764;SDS011;50188;48.114;-1.388;2022-11-20T11:22:49;34.38;;;9.23;;
61764;SDS011;50188;48.114;-1.388;2022-11-20T11:25:23;33.15;;;9.07;;
61764;SDS011;50188;48.114;-1.388;2022-11-20T11:28:04;31.25;;;10.77;;
61764;SDS011;50188;48.114;-1.388;2022-11-20T11:30:45;38.33;;;8.90;;
61764;SDS011;50188;48.114;-1.388;2022-11-20T11:33:24;37.22;;;9.95;;
61764;SDS011;50188;48.114;-1.388;2022-11-20T11:35:56;31.58;;;9.50;;
61764;SDS011;50188;48.114;-1.388;2022-11-20T11:38:37;30.73;;;9.73;;
61764;SDS011;50188;48.114;-1.388;2022-11-20T11:41:06;43.35;;;10.60;;
61764;SDS011;50188;48.114;-1.388;2022-11-20T11:43:35;28.45;;;8.75;;
61764;SDS011;50188;48.114;-1.388;2022-11-20T11:46:30;26.08;;;9.05;;
61764;SDS011;50188;48.114;-1.388;2022-11-20T11:51:58;29.38;;;8.95;;
61764;SDS011;50188;48.114;-1.388;2022-11-20T11:54:50;29.42;;;9.80;;
61764;SDS011;50188;48.114;-1.388;2022-11-20T11:57:29;26.45;;;8.82;;
61764;SDS011;50188;48.114;-1.388;2022-11-20T12:00:15;41.63;;;9.98;;
61764;SDS011;50188;48.114;-1.388;2022-11-20T12:05:32;36.40;;;8.70;;
61764;SDS011;50188;48.114;-1.388;2022-11-20T12:08:12;37.03;;;9.63;;
61764;SDS011;50188;48.114;-1.388;2022-11-20T12:10:53;36.30;;;8.65;;
61764;SDS011;50188;48.114;-1.388;2022-11-20T12:16:28;38.75;;;8.52;;
61764;SDS011;50188;48.114;-1.388;2022-11-20T12:18:59;31.45;;;10.18;;
61764;SDS011;50188;48.114;-1.388;2022-11-20T12:21:29;28.85;;;7.65;;
61764;SDS011;50188;48.114;-1.388;2022-11-20T12:24:22;34.67;;;9.73;;
61764;SDS011;50188;48.114;-1.388;2022-11-20T12:27:09;26.08;;;7.85;;
61764;SDS011;50188;48.114;-1.388;2022-11-20T12:30:01;31.05;;;7.82;;
61764;SDS011;50188;48.114;-1.388;2022-11-20T12:32:46;33.15;;;8.40;;
61764;SDS011;50188;48.114;-1.388;2022-11-20T12:35:38;30.27;;;7.43;;
61764;SDS011;50188;48.114;-1.388;2022-11-20T12:38:45;27.67;;;8.55;;
61764;SDS011;50188;48.114;-1.388;2022-11-20T12:41:44;28.95;;;9.02;;
61764;SDS011;50188;48.114;-1.388;2022-11-20T12:44:43;25.05;;;8.77;;
61764;SDS011;50188;48.114;-1.388;2022-11-20T12:47:51;26.92;;;7.80;;
61764;SDS011;50188;48.114;-1.388;2022-11-20T12:53:50;20.90;;;6.25;;
61764;SDS011;50188;48.114;-1.388;2022-11-20T13:02:40;21.83;;;6.82;;
61764;SDS011;50188;48.114;-1.388;2022-11-20T13:05:37;19.55;;;5.47;;
61764;SDS011;50188;48.114;-1.388;2022-11-20T13:08:27;25.77;;;6.80;;
61764;SDS011;50188;48.114;-1.388;2022-11-20T13:10:57;21.92;;;7.30;;
61764;SDS011;50188;48.114;-1.388;2022-11-20T13:13:41;23.80;;;7.35;;
61764;SDS011;50188;48.114;-1.388;2022-11-20T13:16:16;24.30;;;6.97;;
61764;SDS011;50188;48.114;-1.388;2022-11-20T13:18:55;31.38;;;8.15;;
61764;SDS011;50188;48.114;-1.388;2022-11-20T13:21:37;22.70;;;6.60;;
61764;SDS011;50188;48.114;-1.388;2022-11-20T13:24:22;24.95;;;7.53;;
61764;SDS011;50188;48.114;-1.388;2022-11-20T13:27:23;19.98;;;7.28;;
61764;SDS011;50188;48.114;-1.388;2022-11-20T13:29:46;31.05;;;7.85;;
61764;SDS011;50188;48.114;-1.388;2022-11-20T13:32:24;21.20;;;7.05;;
61764;SDS011;50188;48.114;-1.388;2022-11-20T13:34:52;28.35;;;7.50;;
61764;SDS011;50188;48.114;-1.388;2022-11-20T13:37:29;20.27;;;7.70;;
61764;SDS011;50188;48.114;-1.388;2022-11-20T13:40:11;30.15;;;7.10;;
61764;SDS011;50188;48.114;-1.388;2022-11-20T13:42:45;33.97;;;10.30;;
61764;SDS011;50188;48.114;-1.388;2022-11-20T13:45:25;26.42;;;6.57;;
61764;SDS011;50188;48.114;-1.388;2022-11-20T13:47:53;25.02;;;6.90;;
61764;SDS011;50188;48.114;-1.388;2022-11-20T13:50:19;23.83;;;7.63;;
61764;SDS011;50188;48.114;-1.388;2022-11-20T13:53:06;21.60;;;7.55;;
61764;SDS011;50188;48.114;-1.388;2022-11-20T13:56:01;23.75;;;7.18;;
61764;SDS011;50188;48.114;-1.388;2022-11-20T13:59:05;24.52;;;7.78;;
61764;SDS011;50188;48.114;-1.388;2022-11-20T14:01:45;24.38;;;7.78;;
61764;SDS011;50188;48.114;-1.388;2022-11-20T14:04:15;24.33;;;6.50;;
61764;SDS011;50188;48.114;-1.388;2022-11-20T14:06:51;25.85;;;7.25;;
61764;SDS011;50188;48.114;-1.388;2022-11-20T14:09:28;24.77;;;7.50;;
61764;SDS011;50188;48.114;-1.388;2022-11-20T14:11:56;25.88;;;7.05;;
61764;SDS011;50188;48.114;-1.388;2022-11-20T14:14:23;24.45;;;6.72;;
61764;SDS011;50188;48.114;-1.388;2022-11-20T14:17:04;18.90;;;5.55;;
61764;SDS011;50188;48.114;-1.388;2022-11-20T14:19:31;21.52;;;5.78;;
61764;SDS011;50188;48.114;-1.388;2022-11-20T14:22:09;18.33;;;6.63;;
61764;SDS011;50188;48.114;-1.388;2022-11-20T14:24:42;15.60;;;5.68;;
61764;SDS011;50188;48.114;-1.388;2022-11-20T14:27:15;22.08;;;6.28;;
61764;SDS011;50188;48.114;-1.388;2022-11-20T14:29:44;17.23;;;6.13;;
61764;SDS011;50188;48.114;-1.388;2022-11-20T14:32:14;13.00;;;4.22;;
61764;SDS011;50188;48.114;-1.388;2022-11-20T14:34:43;16.00;;;5.38;;
61764;SDS011;50188;48.114;-1.388;2022-11-20T14:37:11;17.55;;;5.68;;
61764;SDS011;50188;48.114;-1.388;2022-11-20T14:39:42;21.15;;;6.30;;
61764;SDS011;50188;48.114;-1.388;2022-11-20T14:42:17;18.52;;;5.57;;
61764;SDS011;50188;48.114;-1.388;2022-11-20T14:44:45;22.15;;;5.32;;
61764;SDS011;50188;48.114;-1.388;2022-11-20T14:47:13;24.17;;;6.65;;
61764;SDS011;50188;48.114;-1.388;2022-11-20T14:49:43;21.63;;;7.15;;
61764;SDS011;50188;48.114;-1.388;2022-11-20T14:52:11;26.33;;;6.25;;
61764;SDS011;50188;48.114;-1.388;2022-11-20T14:54:44;19.13;;;5.75;;
61764;SDS011;50188;48.114;-1.388;2022-11-20T14:57:23;25.75;;;7.75;;
61764;SDS011;50188;48.114;-1.388;2022-11-20T15:00:20;26.90;;;9.05;;
61764;SDS011;50188;48.114;-1.388;2022-11-20T15:02:47;15.82;;;7.53;;
61764;SDS011;50188;48.114;-1.388;2022-11-20T15:05:14;21.52;;;8.25;;
61764;SDS011;50188;48.114;-1.388;2022-11-20T15:07:43;22.05;;;8.13;;
61764;SDS011;50188;48.114;-1.388;2022-11-20T15:10:20;19.02;;;8.95;;
61764;SDS011;50188;48.114;-1.388;2022-11-20T15:12:52;22.45;;;9.18;;
61764;SDS011;50188;48.114;-1.388;2022-11-20T15:15:32;19.33;;;8.40;;
61764;SDS011;50188;48.114;-1.388;2022-11-20T15:18:01;17.92;;;7.57;;
61764;SDS011;50188;48.114;-1.388;2022-11-20T15:20:29;22.38;;;7.32;;
61764;SDS011;50188;48.114;-1.388;2022-11-20T15:22:57;23.35;;;9.00;;
61764;SDS011;50188;48.114;-1.388;2022-11-20T15:25:23;16.52;;;7.10;;